This is the latest recevied weather packets stored in our database for station/object AB8XS. If no packets are shown the sender has not sent any weather packets the latest 10 day(s).
| Time | Temp. | Humidity | Pressure | Rain* | Wind** | Luminosity | Snow |
|---|---|---|---|---|---|---|---|
| 1777458330 | 9.44° C | 89% | 1011.8 hPa | 0 mm | - | 0 W/m² | - |
| 1777457730 | 9.44° C | 89% | 1011.8 hPa | 0 mm | - | 0 W/m² | - |
| 1777455630 | 9.44° C | 89% | 1011.7 hPa | 0 mm | - | 0 W/m² | - |
| 1777451145 | 9.44° C | 89% | 1011.5 hPa | 0 mm | - | 0 W/m² | - |
| 1777450830 | 9.44° C | 89% | 1011.4 hPa | 0 mm | - | 0 W/m² | - |
| 1777449645 | 9.44° C | 90% | 1011.8 hPa | 0 mm | - | 0 W/m² | - |
| 1777447230 | 9.44° C | 89% | 1011.8 hPa | 0 mm | - | 0 W/m² | - |
| 1777446645 | 9.44° C | 89% | 1011.8 hPa | 0 mm | - | 0 W/m² | - |
| 1777446330 | 9.44° C | 89% | 1011.7 hPa | 0 mm | - | 0 W/m² | - |
| 1777445730 | 9.44° C | 89% | 1011.7 hPa | 0 mm | - | 0 W/m² | - |
| 1777418130 | 12.78° C | 68% | 1011.8 hPa | 0 mm | - | 53 W/m² | - |
| 1777416630 | 13.33° C | 65% | 1012.2 hPa | 0 mm | - | 78 W/m² | - |
| 1777413030 | 14.44° C | 63% | 1011.9 hPa | 0 mm | - | 269 W/m² | - |
| 1777405830 | 13.89° C | 66% | 1012.8 hPa | 0 mm | - | 724 W/m² | - |
| 1777404630 | 13.33° C | 71% | 1012.6 hPa | 0 mm | - | 647 W/m² | - |
| 1777398630 | 11.67° C | 75% | 1011.9 hPa | 0 mm | - | 286 W/m² | - |
| 1777391430 | 11.11° C | 87% | 1010.7 hPa | 0 mm | - | 127 W/m² | - |
| 1777390530 | 10.56° C | 88% | 1010.5 hPa | 0 mm | - | 147 W/m² | - |
| 1777389030 | 10.56° C | 90% | 1010.2 hPa | 0 mm | - | 178 W/m² | - |
| 1777385130 | 10.56° C | 91% | 1008.8 hPa | 0 mm | - | 80 W/m² | - |
| 1777383029 | 10° C | 90% | 1008 hPa | 0 mm | - | 57 W/m² | - |
| 1777376130 | 11.11° C | 88% | 1005.7 hPa | 0 mm | - | 7 W/m² | - |
| 1777373760 | 11.11° C | 90% | 1004.5 hPa | 0 mm | - | 0 W/m² | - |
| 1777366830 | 12.78° C | 92% | 1002.6 hPa | 0 mm | - | 0 W/m² | - |
| 1777365989 | 13.33° C | 93% | 1002.3 hPa | 0 mm | - | 0 W/m² | - |
* Rain latest hour (hover to see other rain measurements)
** Current wind speed in m/s (hover to see current wind gust speed)